Orrs Island, Maine
Current Conditions -  °F | °C
As of 12:51 PM on Monday 24 Nov 2014 (Local Time) from KPWM Reporting Station
Light Rain Light Rain  
Wind Chill: 57°   Ceiling: 300
Heat Index: 57°   Visibility: 2mi
Dew Point: 56°   Wind: 17mph
Humidity: 96%   Direction: 180°S
Pressure: 29.63"   Gusts: 28mph
Location:  43.76°N, 69.98°W
Report Text: KPWM 241751Z 18015G24KT 2SM -RA BR OVC003 14/13 A2963 RMK AO2 PK WND 20027/1728 SLP032 P0002 60076 T01390133 10139 20117 56043
Loading
Personal Weather Stations






























Interactive Weather Map New forecast layout! Learn more

10-Day Weather Forecast

Advertisements
Track Severe Weather on mobile